sensor_id;sensor_type;location;lat;lon;timestamp;P1;durP1;ratioP1;P2;durP2;ratioP2
4385;SDS011;2207;53.540;10.042;2024-03-07T00:01:23;60.63;;;28.20;;
4385;SDS011;2207;53.540;10.042;2024-03-07T00:03:53;58.63;;;28.03;;
4385;SDS011;2207;53.540;10.042;2024-03-07T00:06:20;57.07;;;26.30;;
4385;SDS011;2207;53.540;10.042;2024-03-07T00:08:47;51.73;;;25.47;;
4385;SDS011;2207;53.540;10.042;2024-03-07T00:11:14;51.93;;;26.43;;
4385;SDS011;2207;53.540;10.042;2024-03-07T00:13:40;47.20;;;25.53;;
4385;SDS011;2207;53.540;10.042;2024-03-07T00:16:07;47.70;;;24.37;;
4385;SDS011;2207;53.540;10.042;2024-03-07T00:18:35;42.47;;;23.40;;
4385;SDS011;2207;53.540;10.042;2024-03-07T00:21:04;46.90;;;24.30;;
4385;SDS011;2207;53.540;10.042;2024-03-07T00:23:31;41.63;;;21.83;;
4385;SDS011;2207;53.540;10.042;2024-03-07T00:25:59;46.57;;;21.40;;
4385;SDS011;2207;53.540;10.042;2024-03-07T00:28:25;40.80;;;20.80;;
4385;SDS011;2207;53.540;10.042;2024-03-07T00:30:57;37.57;;;19.60;;
4385;SDS011;2207;53.540;10.042;2024-03-07T00:33:24;34.80;;;19.80;;
4385;SDS011;2207;53.540;10.042;2024-03-07T00:35:51;37.20;;;18.87;;
4385;SDS011;2207;53.540;10.042;2024-03-07T00:38:19;34.43;;;19.13;;
4385;SDS011;2207;53.540;10.042;2024-03-07T00:40:46;37.03;;;17.83;;
4385;SDS011;2207;53.540;10.042;2024-03-07T00:43:12;32.63;;;18.20;;
4385;SDS011;2207;53.540;10.042;2024-03-07T00:45:40;36.30;;;18.23;;
4385;SDS011;2207;53.540;10.042;2024-03-07T00:48:06;36.07;;;17.63;;
4385;SDS011;2207;53.540;10.042;2024-03-07T00:50:34;34.70;;;17.13;;
4385;SDS011;2207;53.540;10.042;2024-03-07T00:53:01;30.17;;;17.00;;
4385;SDS011;2207;53.540;10.042;2024-03-07T00:55:29;38.27;;;17.33;;
4385;SDS011;2207;53.540;10.042;2024-03-07T00:57:56;30.90;;;16.50;;
4385;SDS011;2207;53.540;10.042;2024-03-07T01:00:23;37.47;;;18.33;;
4385;SDS011;2207;53.540;10.042;2024-03-07T01:02:53;35.23;;;18.20;;
4385;SDS011;2207;53.540;10.042;2024-03-07T01:05:22;31.13;;;17.00;;
4385;SDS011;2207;53.540;10.042;2024-03-07T01:07:49;33.13;;;17.13;;
4385;SDS011;2207;53.540;10.042;2024-03-07T01:10:15;32.43;;;16.43;;
4385;SDS011;2207;53.540;10.042;2024-03-07T01:12:44;31.57;;;17.23;;
4385;SDS011;2207;53.540;10.042;2024-03-07T01:15:11;33.00;;;17.17;;
4385;SDS011;2207;53.540;10.042;2024-03-07T01:17:40;35.93;;;18.30;;
4385;SDS011;2207;53.540;10.042;2024-03-07T01:20:07;37.17;;;17.80;;
4385;SDS011;2207;53.540;10.042;2024-03-07T01:22:34;35.50;;;17.63;;
4385;SDS011;2207;53.540;10.042;2024-03-07T01:25:01;37.77;;;19.13;;
4385;SDS011;2207;53.540;10.042;2024-03-07T01:27:29;38.37;;;18.47;;
4385;SDS011;2207;53.540;10.042;2024-03-07T01:29:57;34.03;;;17.97;;
4385;SDS011;2207;53.540;10.042;2024-03-07T01:32:24;40.73;;;18.10;;
4385;SDS011;2207;53.540;10.042;2024-03-07T01:34:51;36.30;;;17.43;;
4385;SDS011;2207;53.540;10.042;2024-03-07T01:37:18;40.23;;;17.97;;
4385;SDS011;2207;53.540;10.042;2024-03-07T01:39:45;32.80;;;16.30;;
4385;SDS011;2207;53.540;10.042;2024-03-07T01:42:12;34.00;;;16.73;;
4385;SDS011;2207;53.540;10.042;2024-03-07T01:44:39;36.27;;;16.80;;
4385;SDS011;2207;53.540;10.042;2024-03-07T01:47:07;36.30;;;16.80;;
4385;SDS011;2207;53.540;10.042;2024-03-07T01:49:35;35.90;;;16.73;;
4385;SDS011;2207;53.540;10.042;2024-03-07T01:52:04;31.43;;;16.57;;
4385;SDS011;2207;53.540;10.042;2024-03-07T01:54:31;33.70;;;18.10;;
4385;SDS011;2207;53.540;10.042;2024-03-07T01:56:58;37.83;;;17.83;;
4385;SDS011;2207;53.540;10.042;2024-03-07T01:59:26;34.20;;;17.17;;
4385;SDS011;2207;53.540;10.042;2024-03-07T02:01:55;37.00;;;17.87;;
4385;SDS011;2207;53.540;10.042;2024-03-07T02:04:24;34.83;;;18.07;;
4385;SDS011;2207;53.540;10.042;2024-03-07T02:06:51;33.90;;;16.20;;
4385;SDS011;2207;53.540;10.042;2024-03-07T02:09:20;34.10;;;17.33;;
4385;SDS011;2207;53.540;10.042;2024-03-07T02:11:47;39.17;;;18.20;;
4385;SDS011;2207;53.540;10.042;2024-03-07T02:14:14;33.90;;;17.80;;
4385;SDS011;2207;53.540;10.042;2024-03-07T02:16:41;37.60;;;18.77;;
4385;SDS011;2207;53.540;10.042;2024-03-07T02:19:10;39.33;;;18.93;;
4385;SDS011;2207;53.540;10.042;2024-03-07T02:21:41;31.97;;;18.60;;
4385;SDS011;2207;53.540;10.042;2024-03-07T02:24:08;35.53;;;18.37;;
4385;SDS011;2207;53.540;10.042;2024-03-07T02:26:34;44.27;;;20.47;;
4385;SDS011;2207;53.540;10.042;2024-03-07T02:29:01;36.60;;;18.93;;
4385;SDS011;2207;53.540;10.042;2024-03-07T02:31:29;32.70;;;19.57;;
4385;SDS011;2207;53.540;10.042;2024-03-07T02:34:02;44.53;;;21.00;;
4385;SDS011;2207;53.540;10.042;2024-03-07T02:36:29;38.20;;;19.80;;
4385;SDS011;2207;53.540;10.042;2024-03-07T02:38:57;39.23;;;19.10;;
4385;SDS011;2207;53.540;10.042;2024-03-07T02:41:24;34.47;;;19.57;;
4385;SDS011;2207;53.540;10.042;2024-03-07T02:43:51;34.70;;;20.10;;
4385;SDS011;2207;53.540;10.042;2024-03-07T02:46:18;32.90;;;18.83;;
4385;SDS011;2207;53.540;10.042;2024-03-07T02:48:45;34.77;;;20.10;;
4385;SDS011;2207;53.540;10.042;2024-03-07T02:51:12;36.50;;;19.63;;
4385;SDS011;2207;53.540;10.042;2024-03-07T02:53:39;35.53;;;19.20;;
4385;SDS011;2207;53.540;10.042;2024-03-07T02:56:07;39.03;;;18.67;;
4385;SDS011;2207;53.540;10.042;2024-03-07T02:58:34;37.60;;;19.27;;
4385;SDS011;2207;53.540;10.042;2024-03-07T03:01:01;38.13;;;19.27;;
4385;SDS011;2207;53.540;10.042;2024-03-07T03:03:29;35.23;;;18.33;;
4385;SDS011;2207;53.540;10.042;2024-03-07T03:05:57;35.63;;;19.20;;
4385;SDS011;2207;53.540;10.042;2024-03-07T03:08:24;32.00;;;18.13;;
4385;SDS011;2207;53.540;10.042;2024-03-07T03:10:53;33.50;;;18.33;;
4385;SDS011;2207;53.540;10.042;2024-03-07T03:13:23;34.00;;;18.40;;
4385;SDS011;2207;53.540;10.042;2024-03-07T03:15:52;32.90;;;17.47;;
4385;SDS011;2207;53.540;10.042;2024-03-07T03:18:19;35.67;;;18.00;;
4385;SDS011;2207;53.540;10.042;2024-03-07T03:20:46;36.50;;;17.73;;
4385;SDS011;2207;53.540;10.042;2024-03-07T03:23:13;30.80;;;16.53;;
4385;SDS011;2207;53.540;10.042;2024-03-07T03:25:40;33.27;;;18.00;;
4385;SDS011;2207;53.540;10.042;2024-03-07T03:28:08;30.60;;;15.53;;
4385;SDS011;2207;53.540;10.042;2024-03-07T03:30:37;32.23;;;17.23;;
4385;SDS011;2207;53.540;10.042;2024-03-07T03:33:04;30.67;;;16.00;;
4385;SDS011;2207;53.540;10.042;2024-03-07T03:35:31;30.37;;;16.27;;
4385;SDS011;2207;53.540;10.042;2024-03-07T03:37:58;31.97;;;15.97;;
4385;SDS011;2207;53.540;10.042;2024-03-07T03:40:26;31.37;;;16.57;;
4385;SDS011;2207;53.540;10.042;2024-03-07T03:42:53;33.87;;;16.47;;
4385;SDS011;2207;53.540;10.042;2024-03-07T03:45:20;32.87;;;16.40;;
4385;SDS011;2207;53.540;10.042;2024-03-07T03:47:48;23.73;;;13.70;;
4385;SDS011;2207;53.540;10.042;2024-03-07T03:50:15;33.43;;;16.27;;
4385;SDS011;2207;53.540;10.042;2024-03-07T03:52:43;32.03;;;14.13;;
4385;SDS011;2207;53.540;10.042;2024-03-07T03:55:10;30.00;;;14.67;;
4385;SDS011;2207;53.540;10.042;2024-03-07T03:57:38;28.73;;;15.20;;
4385;SDS011;2207;53.540;10.042;2024-03-07T04:00:06;31.73;;;15.27;;
4385;SDS011;2207;53.540;10.042;2024-03-07T04:02:37;28.03;;;15.33;;
4385;SDS011;2207;53.540;10.042;2024-03-07T04:05:07;29.20;;;15.60;;
4385;SDS011;2207;53.540;10.042;2024-03-07T04:07:38;27.93;;;16.03;;
4385;SDS011;2207;53.540;10.042;2024-03-07T04:10:05;25.70;;;14.50;;
4385;SDS011;2207;53.540;10.042;2024-03-07T04:12:33;30.90;;;16.13;;
4385;SDS011;2207;53.540;10.042;2024-03-07T04:15:00;30.87;;;13.57;;
4385;SDS011;2207;53.540;10.042;2024-03-07T04:17:29;31.33;;;15.70;;
4385;SDS011;2207;53.540;10.042;2024-03-07T04:19:56;28.93;;;15.00;;
4385;SDS011;2207;53.540;10.042;2024-03-07T04:22:24;28.97;;;15.10;;
4385;SDS011;2207;53.540;10.042;2024-03-07T04:24:51;28.40;;;14.03;;
4385;SDS011;2207;53.540;10.042;2024-03-07T04:27:20;29.23;;;13.53;;
4385;SDS011;2207;53.540;10.042;2024-03-07T04:29:47;28.97;;;14.20;;
4385;SDS011;2207;53.540;10.042;2024-03-07T04:32:15;26.90;;;14.03;;
4385;SDS011;2207;53.540;10.042;2024-03-07T04:34:42;28.77;;;15.43;;
4385;SDS011;2207;53.540;10.042;2024-03-07T04:37:09;27.30;;;15.90;;
4385;SDS011;2207;53.540;10.042;2024-03-07T04:39:38;24.50;;;14.07;;
4385;SDS011;2207;53.540;10.042;2024-03-07T04:42:06;29.10;;;16.07;;
4385;SDS011;2207;53.540;10.042;2024-03-07T04:44:34;24.80;;;14.93;;
4385;SDS011;2207;53.540;10.042;2024-03-07T04:47:02;25.53;;;14.50;;
4385;SDS011;2207;53.540;10.042;2024-03-07T04:49:30;26.03;;;13.93;;
4385;SDS011;2207;53.540;10.042;2024-03-07T04:51:58;24.83;;;15.27;;
4385;SDS011;2207;53.540;10.042;2024-03-07T04:54:26;25.30;;;14.17;;
4385;SDS011;2207;53.540;10.042;2024-03-07T04:56:55;29.87;;;15.10;;
4385;SDS011;2207;53.540;10.042;2024-03-07T04:59:22;23.23;;;14.47;;
4385;SDS011;2207;53.540;10.042;2024-03-07T05:01:49;28.17;;;14.57;;
4385;SDS011;2207;53.540;10.042;2024-03-07T05:04:17;26.37;;;14.30;;
4385;SDS011;2207;53.540;10.042;2024-03-07T05:06:44;26.57;;;14.40;;
4385;SDS011;2207;53.540;10.042;2024-03-07T05:09:13;27.97;;;15.10;;
4385;SDS011;2207;53.540;10.042;2024-03-07T05:11:48;24.93;;;13.23;;
4385;SDS011;2207;53.540;10.042;2024-03-07T05:14:18;21.80;;;14.43;;
4385;SDS011;2207;53.540;10.042;2024-03-07T05:16:45;22.00;;;13.67;;
4385;SDS011;2207;53.540;10.042;2024-03-07T05:19:26;22.83;;;14.00;;
4385;SDS011;2207;53.540;10.042;2024-03-07T05:21:54;24.40;;;14.07;;
4385;SDS011;2207;53.540;10.042;2024-03-07T05:24:21;24.33;;;14.00;;
4385;SDS011;2207;53.540;10.042;2024-03-07T05:26:48;26.20;;;14.27;;
4385;SDS011;2207;53.540;10.042;2024-03-07T05:29:15;26.53;;;14.33;;
4385;SDS011;2207;53.540;10.042;2024-03-07T05:31:44;25.30;;;14.50;;
4385;SDS011;2207;53.540;10.042;2024-03-07T05:34:12;22.67;;;13.53;;
4385;SDS011;2207;53.540;10.042;2024-03-07T05:36:39;23.73;;;13.87;;
4385;SDS011;2207;53.540;10.042;2024-03-07T05:39:09;24.07;;;13.83;;
4385;SDS011;2207;53.540;10.042;2024-03-07T05:41:36;23.47;;;13.73;;
4385;SDS011;2207;53.540;10.042;2024-03-07T05:44:03;24.93;;;14.77;;
4385;SDS011;2207;53.540;10.042;2024-03-07T05:46:34;21.93;;;12.70;;
4385;SDS011;2207;53.540;10.042;2024-03-07T05:49:07;24.40;;;13.63;;
4385;SDS011;2207;53.540;10.042;2024-03-07T05:51:34;25.43;;;14.07;;
4385;SDS011;2207;53.540;10.042;2024-03-07T05:54:01;25.53;;;13.67;;
4385;SDS011;2207;53.540;10.042;2024-03-07T05:56:31;25.77;;;13.53;;
4385;SDS011;2207;53.540;10.042;2024-03-07T05:59:00;20.80;;;12.83;;
4385;SDS011;2207;53.540;10.042;2024-03-07T06:01:29;19.50;;;12.87;;
4385;SDS011;2207;53.540;10.042;2024-03-07T06:03:59;21.67;;;14.00;;
4385;SDS011;2207;53.540;10.042;2024-03-07T06:06:27;18.87;;;13.50;;
4385;SDS011;2207;53.540;10.042;2024-03-07T06:08:57;24.03;;;13.73;;
4385;SDS011;2207;53.540;10.042;2024-03-07T06:11:23;25.37;;;13.80;;
4385;SDS011;2207;53.540;10.042;2024-03-07T06:13:50;20.77;;;14.27;;
4385;SDS011;2207;53.540;10.042;2024-03-07T06:16:17;23.10;;;14.40;;
4385;SDS011;2207;53.540;10.042;2024-03-07T06:18:45;27.50;;;15.03;;
4385;SDS011;2207;53.540;10.042;2024-03-07T06:21:12;20.87;;;13.63;;
4385;SDS011;2207;53.540;10.042;2024-03-07T06:23:41;23.30;;;13.63;;
4385;SDS011;2207;53.540;10.042;2024-03-07T06:26:12;21.30;;;13.40;;
4385;SDS011;2207;53.540;10.042;2024-03-07T06:28:51;27.40;;;13.87;;
4385;SDS011;2207;53.540;10.042;2024-03-07T06:31:18;24.47;;;14.53;;
4385;SDS011;2207;53.540;10.042;2024-03-07T06:33:45;27.83;;;16.27;;
4385;SDS011;2207;53.540;10.042;2024-03-07T06:36:12;21.97;;;13.77;;
4385;SDS011;2207;53.540;10.042;2024-03-07T06:38:40;23.37;;;14.83;;
4385;SDS011;2207;53.540;10.042;2024-03-07T06:41:07;22.80;;;13.53;;
4385;SDS011;2207;53.540;10.042;2024-03-07T06:43:35;21.83;;;13.50;;
4385;SDS011;2207;53.540;10.042;2024-03-07T06:46:03;20.97;;;14.17;;
4385;SDS011;2207;53.540;10.042;2024-03-07T06:48:31;26.13;;;14.60;;
4385;SDS011;2207;53.540;10.042;2024-03-07T06:50:58;21.83;;;13.53;;
4385;SDS011;2207;53.540;10.042;2024-03-07T06:53:25;20.80;;;13.23;;
4385;SDS011;2207;53.540;10.042;2024-03-07T06:55:54;23.43;;;13.63;;
4385;SDS011;2207;53.540;10.042;2024-03-07T06:58:21;24.13;;;14.20;;
4385;SDS011;2207;53.540;10.042;2024-03-07T07:00:48;23.77;;;14.77;;
4385;SDS011;2207;53.540;10.042;2024-03-07T07:03:17;21.60;;;13.97;;
4385;SDS011;2207;53.540;10.042;2024-03-07T07:05:44;24.47;;;15.10;;
4385;SDS011;2207;53.540;10.042;2024-03-07T07:08:11;22.07;;;14.40;;
4385;SDS011;2207;53.540;10.042;2024-03-07T07:10:38;25.80;;;14.57;;
4385;SDS011;2207;53.540;10.042;2024-03-07T07:13:07;23.33;;;14.73;;
4385;SDS011;2207;53.540;10.042;2024-03-07T07:15:35;20.40;;;14.47;;
4385;SDS011;2207;53.540;10.042;2024-03-07T07:18:03;21.97;;;13.77;;
4385;SDS011;2207;53.540;10.042;2024-03-07T07:20:31;19.87;;;14.20;;
4385;SDS011;2207;53.540;10.042;2024-03-07T07:22:59;24.03;;;13.67;;
4385;SDS011;2207;53.540;10.042;2024-03-07T07:25:30;22.37;;;14.40;;
4385;SDS011;2207;53.540;10.042;2024-03-07T07:27:57;18.63;;;12.53;;
4385;SDS011;2207;53.540;10.042;2024-03-07T07:30:27;17.33;;;12.70;;
4385;SDS011;2207;53.540;10.042;2024-03-07T07:32:54;22.07;;;12.77;;
4385;SDS011;2207;53.540;10.042;2024-03-07T07:35:21;21.93;;;12.23;;
4385;SDS011;2207;53.540;10.042;2024-03-07T07:37:49;22.83;;;13.07;;
4385;SDS011;2207;53.540;10.042;2024-03-07T07:40:20;19.33;;;12.53;;
4385;SDS011;2207;53.540;10.042;2024-03-07T07:42:50;19.77;;;13.03;;
4385;SDS011;2207;53.540;10.042;2024-03-07T07:45:19;23.23;;;13.67;;
4385;SDS011;2207;53.540;10.042;2024-03-07T07:47:48;17.73;;;11.20;;
4385;SDS011;2207;53.540;10.042;2024-03-07T07:50:17;22.10;;;13.03;;
4385;SDS011;2207;53.540;10.042;2024-03-07T07:52:45;19.33;;;12.53;;
4385;SDS011;2207;53.540;10.042;2024-03-07T07:55:13;21.53;;;13.53;;
4385;SDS011;2207;53.540;10.042;2024-03-07T07:57:40;18.67;;;12.13;;
4385;SDS011;2207;53.540;10.042;2024-03-07T08:00:09;19.73;;;11.83;;
4385;SDS011;2207;53.540;10.042;2024-03-07T08:02:46;21.57;;;11.87;;
4385;SDS011;2207;53.540;10.042;2024-03-07T08:05:16;16.27;;;11.07;;
4385;SDS011;2207;53.540;10.042;2024-03-07T08:07:45;16.07;;;11.13;;
4385;SDS011;2207;53.540;10.042;2024-03-07T08:10:12;15.40;;;10.30;;
4385;SDS011;2207;53.540;10.042;2024-03-07T08:12:40;16.73;;;10.27;;
4385;SDS011;2207;53.540;10.042;2024-03-07T08:15:08;18.27;;;10.40;;
4385;SDS011;2207;53.540;10.042;2024-03-07T08:17:38;16.27;;;10.00;;
4385;SDS011;2207;53.540;10.042;2024-03-07T08:20:10;19.30;;;10.30;;
4385;SDS011;2207;53.540;10.042;2024-03-07T08:22:38;18.73;;;9.83;;
4385;SDS011;2207;53.540;10.042;2024-03-07T08:25:06;14.80;;;9.17;;
4385;SDS011;2207;53.540;10.042;2024-03-07T08:27:35;15.80;;;9.53;;
4385;SDS011;2207;53.540;10.042;2024-03-07T08:30:02;15.97;;;10.07;;
4385;SDS011;2207;53.540;10.042;2024-03-07T08:32:32;19.63;;;10.27;;
4385;SDS011;2207;53.540;10.042;2024-03-07T08:35:02;17.87;;;9.53;;
4385;SDS011;2207;53.540;10.042;2024-03-07T08:37:33;14.70;;;9.67;;
4385;SDS011;2207;53.540;10.042;2024-03-07T08:40:01;11.70;;;8.50;;
4385;SDS011;2207;53.540;10.042;2024-03-07T08:42:31;15.60;;;9.30;;
4385;SDS011;2207;53.540;10.042;2024-03-07T08:44:59;14.47;;;8.50;;
4385;SDS011;2207;53.540;10.042;2024-03-07T08:47:39;15.67;;;8.83;;
4385;SDS011;2207;53.540;10.042;2024-03-07T08:50:07;17.53;;;9.33;;
4385;SDS011;2207;53.540;10.042;2024-03-07T08:52:36;17.23;;;9.13;;
4385;SDS011;2207;53.540;10.042;2024-03-07T08:55:04;17.60;;;9.50;;
4385;SDS011;2207;53.540;10.042;2024-03-07T08:57:34;14.20;;;9.17;;
4385;SDS011;2207;53.540;10.042;2024-03-07T09:00:05;13.93;;;9.10;;
4385;SDS011;2207;53.540;10.042;2024-03-07T09:02:47;15.03;;;9.43;;
4385;SDS011;2207;53.540;10.042;2024-03-07T09:05:15;16.63;;;9.80;;
4385;SDS011;2207;53.540;10.042;2024-03-07T09:07:44;17.73;;;9.90;;
4385;SDS011;2207;53.540;10.042;2024-03-07T09:10:12;17.93;;;9.43;;
4385;SDS011;2207;53.540;10.042;2024-03-07T09:12:39;16.73;;;9.77;;
4385;SDS011;2207;53.540;10.042;2024-03-07T09:15:06;14.87;;;9.57;;
4385;SDS011;2207;53.540;10.042;2024-03-07T09:17:35;15.30;;;9.47;;
4385;SDS011;2207;53.540;10.042;2024-03-07T09:20:02;14.80;;;9.20;;
4385;SDS011;2207;53.540;10.042;2024-03-07T09:22:30;16.77;;;10.50;;
4385;SDS011;2207;53.540;10.042;2024-03-07T09:24:59;15.63;;;10.17;;
4385;SDS011;2207;53.540;10.042;2024-03-07T09:27:26;20.10;;;11.50;;
4385;SDS011;2207;53.540;10.042;2024-03-07T09:29:52;20.30;;;11.37;;
4385;SDS011;2207;53.540;10.042;2024-03-07T09:32:19;16.90;;;10.83;;
4385;SDS011;2207;53.540;10.042;2024-03-07T09:34:47;17.30;;;10.97;;
4385;SDS011;2207;53.540;10.042;2024-03-07T09:37:14;20.93;;;11.40;;
4385;SDS011;2207;53.540;10.042;2024-03-07T09:41:35;19.93;;;10.80;;
4385;SDS011;2207;53.540;10.042;2024-03-07T09:44:03;19.10;;;10.17;;
4385;SDS011;2207;53.540;10.042;2024-03-07T09:46:31;20.53;;;10.93;;
4385;SDS011;2207;53.540;10.042;2024-03-07T09:48:58;15.53;;;8.03;;
4385;SDS011;2207;53.540;10.042;2024-03-07T09:51:26;13.53;;;8.53;;
4385;SDS011;2207;53.540;10.042;2024-03-07T09:53:56;18.03;;;10.50;;
4385;SDS011;2207;53.540;10.042;2024-03-07T09:56:25;21.37;;;11.87;;
4385;SDS011;2207;53.540;10.042;2024-03-07T09:58:57;20.50;;;10.33;;
4385;SDS011;2207;53.540;10.042;2024-03-07T10:01:25;17.50;;;11.27;;
4385;SDS011;2207;53.540;10.042;2024-03-07T10:03:58;25.07;;;12.43;;
4385;SDS011;2207;53.540;10.042;2024-03-07T10:06:35;21.00;;;12.13;;
4385;SDS011;2207;53.540;10.042;2024-03-07T10:09:02;11.57;;;5.57;;
4385;SDS011;2207;53.540;10.042;2024-03-07T10:11:30;18.67;;;10.97;;
4385;SDS011;2207;53.540;10.042;2024-03-07T10:13:59;18.27;;;11.07;;
4385;SDS011;2207;53.540;10.042;2024-03-07T10:16:28;20.90;;;11.73;;
4385;SDS011;2207;53.540;10.042;2024-03-07T10:18:55;22.57;;;12.13;;
4385;SDS011;2207;53.540;10.042;2024-03-07T10:21:23;20.40;;;12.27;;
4385;SDS011;2207;53.540;10.042;2024-03-07T10:24:04;22.77;;;14.00;;
4385;SDS011;2207;53.540;10.042;2024-03-07T10:26:34;19.40;;;10.83;;
4385;SDS011;2207;53.540;10.042;2024-03-07T10:29:04;20.73;;;10.47;;
4385;SDS011;2207;53.540;10.042;2024-03-07T10:31:33;21.10;;;12.60;;
4385;SDS011;2207;53.540;10.042;2024-03-07T10:34:02;25.53;;;12.70;;
4385;SDS011;2207;53.540;10.042;2024-03-07T10:36:29;23.37;;;12.33;;
4385;SDS011;2207;53.540;10.042;2024-03-07T10:38:57;32.03;;;14.47;;
4385;SDS011;2207;53.540;10.042;2024-03-07T10:41:36;19.90;;;9.40;;
4385;SDS011;2207;53.540;10.042;2024-03-07T10:44:14;15.10;;;8.33;;
4385;SDS011;2207;53.540;10.042;2024-03-07T10:46:50;17.77;;;11.07;;
4385;SDS011;2207;53.540;10.042;2024-03-07T10:49:19;23.83;;;13.03;;
4385;SDS011;2207;53.540;10.042;2024-03-07T10:51:57;19.83;;;11.37;;
4385;SDS011;2207;53.540;10.042;2024-03-07T10:54:34;22.33;;;12.23;;
4385;SDS011;2207;53.540;10.042;2024-03-07T10:57:15;19.53;;;11.73;;
4385;SDS011;2207;53.540;10.042;2024-03-07T10:59:54;19.93;;;10.93;;
4385;SDS011;2207;53.540;10.042;2024-03-07T11:02:37;21.03;;;12.17;;
4385;SDS011;2207;53.540;10.042;2024-03-07T11:05:12;19.87;;;11.27;;
4385;SDS011;2207;53.540;10.042;2024-03-07T11:07:40;16.60;;;10.77;;
4385;SDS011;2207;53.540;10.042;2024-03-07T11:10:09;25.47;;;12.33;;
4385;SDS011;2207;53.540;10.042;2024-03-07T11:12:37;19.03;;;11.10;;
4385;SDS011;2207;53.540;10.042;2024-03-07T11:15:07;20.07;;;10.17;;
4385;SDS011;2207;53.540;10.042;2024-03-07T11:17:40;19.27;;;11.10;;
4385;SDS011;2207;53.540;10.042;2024-03-07T11:20:19;22.03;;;13.53;;
4385;SDS011;2207;53.540;10.042;2024-03-07T11:22:48;20.83;;;11.90;;
4385;SDS011;2207;53.540;10.042;2024-03-07T11:25:17;22.37;;;12.97;;
4385;SDS011;2207;53.540;10.042;2024-03-07T11:27:50;19.77;;;12.03;;
4385;SDS011;2207;53.540;10.042;2024-03-07T11:30:20;21.47;;;12.53;;
4385;SDS011;2207;53.540;10.042;2024-03-07T11:32:47;20.73;;;13.07;;
4385;SDS011;2207;53.540;10.042;2024-03-07T11:35:15;21.83;;;12.37;;
4385;SDS011;2207;53.540;10.042;2024-03-07T11:37:47;22.53;;;13.00;;
4385;SDS011;2207;53.540;10.042;2024-03-07T11:43:15;22.53;;;13.97;;
4385;SDS011;2207;53.540;10.042;2024-03-07T11:45:43;22.40;;;13.57;;
4385;SDS011;2207;53.540;10.042;2024-03-07T11:48:17;25.77;;;16.73;;
4385;SDS011;2207;53.540;10.042;2024-03-07T11:50:47;22.23;;;13.30;;
4385;SDS011;2207;53.540;10.042;2024-03-07T11:53:14;22.27;;;14.00;;
4385;SDS011;2207;53.540;10.042;2024-03-07T11:55:42;24.30;;;14.23;;
4385;SDS011;2207;53.540;10.042;2024-03-07T11:58:11;25.10;;;13.33;;
4385;SDS011;2207;53.540;10.042;2024-03-07T12:00:39;22.90;;;13.37;;
4385;SDS011;2207;53.540;10.042;2024-03-07T12:06:10;21.90;;;13.57;;
4385;SDS011;2207;53.540;10.042;2024-03-07T12:08:38;19.93;;;12.07;;
4385;SDS011;2207;53.540;10.042;2024-03-07T12:11:06;23.43;;;13.03;;
4385;SDS011;2207;53.540;10.042;2024-03-07T12:13:37;23.07;;;12.83;;
4385;SDS011;2207;53.540;10.042;2024-03-07T12:16:06;28.53;;;14.97;;
4385;SDS011;2207;53.540;10.042;2024-03-07T12:18:36;25.23;;;13.70;;
4385;SDS011;2207;53.540;10.042;2024-03-07T12:21:04;22.23;;;13.27;;
4385;SDS011;2207;53.540;10.042;2024-03-07T12:23:35;21.27;;;12.57;;
4385;SDS011;2207;53.540;10.042;2024-03-07T12:26:05;24.17;;;12.87;;
4385;SDS011;2207;53.540;10.042;2024-03-07T12:28:32;21.33;;;13.80;;
4385;SDS011;2207;53.540;10.042;2024-03-07T12:30:59;22.93;;;13.13;;
4385;SDS011;2207;53.540;10.042;2024-03-07T12:33:28;24.47;;;14.47;;
4385;SDS011;2207;53.540;10.042;2024-03-07T12:35:57;28.77;;;11.07;;
4385;SDS011;2207;53.540;10.042;2024-03-07T12:38:31;21.17;;;12.93;;
4385;SDS011;2207;53.540;10.042;2024-03-07T12:41:05;18.57;;;10.00;;
4385;SDS011;2207;53.540;10.042;2024-03-07T12:43:39;26.87;;;14.10;;
4385;SDS011;2207;53.540;10.042;2024-03-07T12:46:07;21.43;;;11.47;;
4385;SDS011;2207;53.540;10.042;2024-03-07T12:48:36;28.57;;;14.23;;
4385;SDS011;2207;53.540;10.042;2024-03-07T12:51:06;26.43;;;13.47;;
4385;SDS011;2207;53.540;10.042;2024-03-07T12:53:41;23.90;;;13.77;;
4385;SDS011;2207;53.540;10.042;2024-03-07T12:56:10;22.43;;;13.80;;
4385;SDS011;2207;53.540;10.042;2024-03-07T12:58:41;20.07;;;11.83;;
4385;SDS011;2207;53.540;10.042;2024-03-07T13:01:08;22.33;;;13.13;;
4385;SDS011;2207;53.540;10.042;2024-03-07T13:03:34;23.90;;;12.83;;
4385;SDS011;2207;53.540;10.042;2024-03-07T13:06:01;24.20;;;14.00;;
4385;SDS011;2207;53.540;10.042;2024-03-07T13:08:29;18.33;;;11.50;;
4385;SDS011;2207;53.540;10.042;2024-03-07T13:10:56;24.70;;;13.07;;
4385;SDS011;2207;53.540;10.042;2024-03-07T13:13:26;24.50;;;14.30;;
4385;SDS011;2207;53.540;10.042;2024-03-07T13:15:53;27.93;;;14.40;;
4385;SDS011;2207;53.540;10.042;2024-03-07T13:18:20;24.20;;;14.30;;
4385;SDS011;2207;53.540;10.042;2024-03-07T13:20:48;23.80;;;14.10;;
4385;SDS011;2207;53.540;10.042;2024-03-07T13:23:15;22.83;;;14.00;;
4385;SDS011;2207;53.540;10.042;2024-03-07T13:25:42;27.80;;;14.43;;
4385;SDS011;2207;53.540;10.042;2024-03-07T13:28:09;27.53;;;14.27;;
4385;SDS011;2207;53.540;10.042;2024-03-07T13:30:41;22.63;;;14.13;;
4385;SDS011;2207;53.540;10.042;2024-03-07T13:33:09;24.57;;;16.77;;
4385;SDS011;2207;53.540;10.042;2024-03-07T13:35:37;21.93;;;12.33;;
4385;SDS011;2207;53.540;10.042;2024-03-07T13:38:05;22.50;;;14.67;;
4385;SDS011;2207;53.540;10.042;2024-03-07T13:40:33;24.57;;;14.33;;
4385;SDS011;2207;53.540;10.042;2024-03-07T13:43:03;27.33;;;15.17;;
4385;SDS011;2207;53.540;10.042;2024-03-07T13:45:30;22.80;;;13.90;;
4385;SDS011;2207;53.540;10.042;2024-03-07T13:48:05;26.30;;;14.57;;
4385;SDS011;2207;53.540;10.042;2024-03-07T13:50:35;27.27;;;15.27;;
4385;SDS011;2207;53.540;10.042;2024-03-07T13:53:03;24.03;;;14.33;;
4385;SDS011;2207;53.540;10.042;2024-03-07T13:55:39;29.80;;;15.00;;
4385;SDS011;2207;53.540;10.042;2024-03-07T13:58:17;26.73;;;15.40;;
4385;SDS011;2207;53.540;10.042;2024-03-07T14:00:57;19.00;;;9.27;;
4385;SDS011;2207;53.540;10.042;2024-03-07T14:03:56;21.83;;;13.53;;
4385;SDS011;2207;53.540;10.042;2024-03-07T14:06:42;24.23;;;13.53;;
4385;SDS011;2207;53.540;10.042;2024-03-07T14:09:35;22.50;;;12.27;;
4385;SDS011;2207;53.540;10.042;2024-03-07T14:12:34;21.37;;;12.57;;
4385;SDS011;2207;53.540;10.042;2024-03-07T14:18:18;23.10;;;14.03;;
4385;SDS011;2207;53.540;10.042;2024-03-07T14:21:34;24.70;;;14.00;;
4385;SDS011;2207;53.540;10.042;2024-03-07T14:24:24;22.07;;;13.93;;
4385;SDS011;2207;53.540;10.042;2024-03-07T14:27:32;23.67;;;14.20;;
4385;SDS011;2207;53.540;10.042;2024-03-07T14:30:24;21.47;;;11.87;;
4385;SDS011;2207;53.540;10.042;2024-03-07T14:33:09;22.87;;;14.20;;
4385;SDS011;2207;53.540;10.042;2024-03-07T14:38:34;30.27;;;15.40;;
4385;SDS011;2207;53.540;10.042;2024-03-07T14:41:13;22.50;;;12.47;;
4385;SDS011;2207;53.540;10.042;2024-03-07T14:43:42;21.83;;;12.67;;
4385;SDS011;2207;53.540;10.042;2024-03-07T14:46:10;24.17;;;14.13;;
4385;SDS011;2207;53.540;10.042;2024-03-07T14:48:40;26.00;;;15.37;;
4385;SDS011;2207;53.540;10.042;2024-03-07T14:51:09;23.47;;;14.20;;
4385;SDS011;2207;53.540;10.042;2024-03-07T14:53:40;19.10;;;10.90;;
4385;SDS011;2207;53.540;10.042;2024-03-07T14:56:08;21.40;;;13.63;;
4385;SDS011;2207;53.540;10.042;2024-03-07T14:58:36;22.53;;;13.23;;
4385;SDS011;2207;53.540;10.042;2024-03-07T15:01:03;23.17;;;14.60;;
4385;SDS011;2207;53.540;10.042;2024-03-07T15:03:31;22.80;;;13.60;;